Time,TemperatureF,DewpointF,PressureIn,WindDirection,WindDirectionDegrees,WindSpeedMPH,WindSpeedGustMPH,Humidity,HourlyPrecipIn,Conditions,Clouds,dailyrainin,SoftwareType,DateUTC
2013-10-06 01:00:00,70.6,68.1,30.02,South,190,0.0,0.0,91,0.00,,,0.00,Meteorologica,2013-10-06 05:00:00,
2013-10-06 01:01:00,70.4,68.0,30.02,South,190,0.0,0.0,92,0.00,,,0.00,Meteorologica,2013-10-06 05:01:00,
2013-10-06 01:02:00,61.7,61.7,29.93,WSW,241,0.6,6.4,100,0.01,,,0.01,Meteorologica,2013-10-06 05:02:00,
2013-10-06 01:03:00,61.4,61.4,29.93,North,2,0.8,6.4,100,0.01,,,0.01,Meteorologica,2013-10-06 05:03:00,
2013-10-06 01:04:00,61.0,61.0,29.93,North,7,2.2,6.4,100,0.01,,,0.01,Meteorologica,2013-10-06 05:04:00,
2013-10-06 01:05:00,60.9,60.9,29.94,NE,47,0.7,6.3,100,0.02,,,0.02,Meteorologica,2013-10-06 05:05:00,
2013-10-06 01:06:00,70.4,68.1,30.02,South,190,0.0,0.0,92,0.00,,,0.00,Meteorologica,2013-10-06 05:06:00,
2013-10-06 01:07:00,60.4,60.4,29.94,ENE,57,0.5,6.3,100,0.02,,,0.02,Meteorologica,2013-10-06 05:07:00,
2013-10-06 01:08:00,60.1,60.1,29.94,WNW,282,2.1,6.3,100,0.03,,,0.03,Meteorologica,2013-10-06 05:08:00,
2013-10-06 01:09:00,59.9,59.9,29.94,North,11,0.7,6.3,100,0.03,,,0.03,Meteorologica,2013-10-06 05:09:00,
2013-10-06 01:10:00,59.7,59.7,29.94,North,11,0.0,6.2,100,0.03,,,0.03,Meteorologica,2013-10-06 05:10:00,
2013-10-06 01:11:00,70.2,68.1,30.02,South,190,0.0,0.0,93,0.00,,,0.00,Meteorologica,2013-10-06 05:11:00,
2013-10-06 01:12:00,59.5,59.5,29.94,NNE,22,3.1,6.2,100,0.03,,,0.03,Meteorologica,2013-10-06 05:12:00,
2013-10-06 01:13:00,59.2,59.2,29.93,NNE,22,1.1,6.2,100,0.03,,,0.03,Meteorologica,2013-10-06 05:13:00,
2013-10-06 01:14:00,59.1,59.1,29.93,NNE,22,0.0,6.2,100,0.03,,,0.03,Meteorologica,2013-10-06 05:14:00,
2013-10-06 01:15:00,59.0,59.0,29.93,NNW,347,1.1,5.3,100,0.03,,,0.03,Meteorologica,2013-10-06 05:15:00,
2013-10-06 01:16:00,70.0,68.3,30.01,South,190,0.0,0.0,94,0.00,,,0.00,Meteorologica,2013-10-06 05:16:00,
2013-10-06 01:17:00,58.9,58.9,29.93,ENE,76,0.4,5.3,100,0.03,,,0.03,Meteorologica,2013-10-06 05:17:00,
2013-10-06 01:18:00,58.7,58.7,29.93,NE,49,1.2,5.3,100,0.03,,,0.03,Meteorologica,2013-10-06 05:18:00,
2013-10-06 01:19:00,58.6,58.6,29.93,East,79,2.3,5.3,100,0.04,,,0.04,Meteorologica,2013-10-06 05:19:00,
2013-10-06 01:20:00,58.4,58.4,29.93,North,11,1.7,4.5,100,0.04,,,0.04,Meteorologica,2013-10-06 05:20:00,
2013-10-06 01:21:00,58.2,58.2,29.93,West,259,1.5,4.5,100,0.04,,,0.04,Meteorologica,2013-10-06 05:21:00,
2013-10-06 01:22:00,69.8,68.4,30.01,South,190,0.0,0.0,95,0.00,,,0.00,Meteorologica,2013-10-06 05:22:00,
2013-10-06 01:23:00,58.1,58.1,29.94,ENE,74,2.2,4.5,100,0.04,,,0.04,Meteorologica,2013-10-06 05:23:00,
2013-10-06 01:24:00,58.0,58.0,29.94,NE,40,1.4,4.5,100,0.04,,,0.04,Meteorologica,2013-10-06 05:24:00,
2013-10-06 01:25:00,57.9,57.9,29.94,NNE,27,2.5,8.7,100,0.04,,,0.04,Meteorologica,2013-10-06 05:25:00,
2013-10-06 01:26:00,57.9,57.9,29.94,NNE,18,1.5,8.7,100,0.04,,,0.04,Meteorologica,2013-10-06 05:26:00,
2013-10-06 01:27:00,69.7,68.4,30.01,South,190,0.0,0.0,95,0.00,,,0.00,Meteorologica,2013-10-06 05:27:00,
2013-10-06 01:28:00,57.7,57.7,29.94,NNE,28,0.0,8.7,100,0.04,,,0.04,Meteorologica,2013-10-06 05:28:00,
2013-10-06 01:29:00,57.6,57.6,29.93,NNE,28,0.0,8.7,100,0.04,,,0.04,Meteorologica,2013-10-06 05:29:00,
2013-10-06 01:30:00,57.6,57.6,29.93,NNE,28,0.0,3.0,100,0.04,,,0.04,Meteorologica,2013-10-06 05:30:00,
2013-10-06 01:31:00,57.6,57.6,29.93,NNE,28,0.0,3.0,100,0.04,,,0.04,Meteorologica,2013-10-06 05:31:00,
2013-10-06 01:32:00,69.4,68.2,30.02,South,190,0.0,0.0,96,0.00,,,0.00,Meteorologica,2013-10-06 05:32:00,
2013-10-06 01:33:00,57.6,57.6,29.94,NNE,28,0.0,3.0,100,0.04,,,0.04,Meteorologica,2013-10-06 05:33:00,
2013-10-06 01:34:00,57.6,57.6,29.94,NNE,28,0.0,3.0,100,0.04,,,0.04,Meteorologica,2013-10-06 05:34:00,
2013-10-06 01:35:00,57.6,57.6,29.94,NNE,28,0.0,0.0,100,0.04,,,0.04,Meteorologica,2013-10-06 05:35:00,
2013-10-06 01:36:00,57.6,57.6,29.94,NNE,28,0.0,0.0,100,0.04,,,0.04,Meteorologica,2013-10-06 05:36:00,
2013-10-06 01:37:00,69.5,69.0,30.02,South,190,0.0,0.0,98,0.00,,,0.00,Meteorologica,2013-10-06 05:37:00,
2013-10-06 01:38:00,57.6,57.6,29.94,NNE,28,0.0,0.0,100,0.04,,,0.04,Meteorologica,2013-10-06 05:38:00,
2013-10-06 01:39:00,57.6,57.6,29.94,NNE,28,0.0,0.0,100,0.04,,,0.04,Meteorologica,2013-10-06 05:39:00,
2013-10-06 01:40:00,57.6,57.6,29.93,NNE,28,0.0,0.0,100,0.04,,,0.04,Meteorologica,2013-10-06 05:40:00,
2013-10-06 01:41:00,57.5,57.5,29.93,NNE,28,0.0,0.0,100,0.04,,,0.04,Meteorologica,2013-10-06 05:41:00,
2013-10-06 01:42:00,69.5,69.5,30.01,South,190,0.0,0.0,100,0.00,,,0.00,Meteorologica,2013-10-06 05:42:00,
2013-10-06 01:43:00,57.4,57.4,29.93,NNE,28,0.0,0.0,100,0.04,,,0.04,Meteorologica,2013-10-06 05:43:00,
2013-10-06 01:44:00,57.4,57.4,29.93,NNE,28,0.0,0.0,100,0.04,,,0.04,Meteorologica,2013-10-06 05:44:00,
2013-10-06 01:45:00,57.4,57.4,29.93,NNE,28,0.0,0.0,100,0.04,,,0.04,Meteorologica,2013-10-06 05:45:00,
2013-10-06 01:46:00,57.4,57.4,29.93,NNE,28,0.0,0.0,100,0.04,,,0.04,Meteorologica,2013-10-06 05:46:00,
2013-10-06 01:47:00,69.1,69.1,30.01,South,190,0.0,0.0,100,0.00,,,0.00,Meteorologica,2013-10-06 05:47:00,
2013-10-06 01:48:00,57.4,57.4,29.93,NNE,28,0.0,0.0,100,0.04,,,0.04,Meteorologica,2013-10-06 05:48:00,
2013-10-06 01:49:00,57.4,57.4,29.93,NNE,28,0.0,0.0,100,0.04,,,0.04,Meteorologica,2013-10-06 05:49:00,
2013-10-06 01:50:00,57.3,57.3,29.93,NNE,28,0.0,0.0,100,0.04,,,0.04,Meteorologica,2013-10-06 05:50:00,
2013-10-06 01:51:00,57.3,57.3,29.93,NNE,28,0.0,0.0,100,0.04,,,0.04,Meteorologica,2013-10-06 05:51:00,
2013-10-06 01:52:00,68.9,68.9,30.01,South,190,0.0,0.0,100,0.00,,,0.00,Meteorologica,2013-10-06 05:52:00,
2013-10-06 01:53:00,57.3,57.3,29.93,NNE,28,0.0,0.0,100,0.04,,,0.04,Meteorologica,2013-10-06 05:53:00,
2013-10-06 01:54:00,57.3,57.3,29.93,NNE,28,0.0,0.0,100,0.03,,,0.04,Meteorologica,2013-10-06 05:54:00,
2013-10-06 01:55:00,57.2,57.2,29.93,NNE,28,0.0,0.0,100,0.03,,,0.04,Meteorologica,2013-10-06 05:55:00,
2013-10-06 01:56:00,57.2,57.2,29.93,NNE,28,0.0,0.0,100,0.03,,,0.04,Meteorologica,2013-10-06 05:56:00,
2013-10-06 01:57:00,57.1,57.1,29.93,NNE,28,0.0,0.0,100,0.03,,,0.04,Meteorologica,2013-10-06 05:57:00,
2013-10-06 01:58:00,68.7,68.7,30.01,South,190,0.0,0.0,100,0.00,,,0.00,Meteorologica,2013-10-06 05:58:00,
2013-10-06 01:59:00,57.1,57.1,29.93,NNE,28,0.0,0.0,100,0.03,,,0.04,Meteorologica,2013-10-06 05:59:00,
2013-10-06 02:03:00,68.5,68.5,30.01,South,190,0.0,0.0,100,0.00,,,0.00,Meteorologica,2013-10-06 06:03:00,
2013-10-06 02:08:00,68.3,68.3,30.01,South,190,0.0,0.0,100,0.00,,,0.00,Meteorologica,2013-10-06 06:08:00,
2013-10-06 02:13:00,68.2,68.2,30.01,South,190,0.0,0.0,100,0.00,,,0.00,Meteorologica,2013-10-06 06:13:00,
2013-10-06 02:19:00,68.1,68.1,30.01,South,190,0.0,0.0,100,0.00,,,0.00,Meteorologica,2013-10-06 06:19:00,
2013-10-06 02:24:00,67.9,67.9,30.01,South,190,0.0,0.0,100,0.00,,,0.00,Meteorologica,2013-10-06 06:24:00,
2013-10-06 02:29:00,67.9,67.9,30.01,South,190,0.0,0.0,100,0.00,,,0.00,Meteorologica,2013-10-06 06:29:00,
2013-10-06 02:34:00,67.7,67.7,30.01,South,190,0.0,0.0,100,0.00,,,0.00,Meteorologica,2013-10-06 06:34:00,
2013-10-06 02:39:00,67.3,67.3,30.01,South,190,0.0,0.0,100,0.00,,,0.00,Meteorologica,2013-10-06 06:39:00,
2013-10-06 02:45:00,67.3,67.3,30.01,South,190,0.0,0.0,100,0.00,,,0.00,Meteorologica,2013-10-06 06:45:00,
2013-10-06 02:50:00,67.1,67.1,30.01,South,190,0.0,0.0,100,0.00,,,0.00,Meteorologica,2013-10-06 06:50:00,
2013-10-06 02:56:00,66.9,66.9,30.01,South,190,0.0,0.0,100,0.00,,,0.00,Meteorologica,2013-10-06 06:56:00,
2013-10-06 03:01:00,67.0,67.0,30.01,South,190,0.0,0.0,100,0.00,,,0.00,Meteorologica,2013-10-06 07:01:00,
2013-10-06 03:06:00,66.8,66.8,30.01,South,190,0.0,0.0,100,0.00,,,0.00,Meteorologica,2013-10-06 07:06:00,
2013-10-06 03:11:00,66.8,66.8,30.00,South,190,0.0,0.0,100,0.00,,,0.00,Meteorologica,2013-10-06 07:11:00,
2013-10-06 03:16:00,66.7,66.7,30.00,South,190,0.0,0.0,100,0.00,,,0.00,Meteorologica,2013-10-06 07:16:00,
2013-10-06 03:21:00,66.5,66.5,30.00,South,190,0.0,0.0,100,0.00,,,0.00,Meteorologica,2013-10-06 07:21:00,
2013-10-06 03:27:00,66.4,66.4,30.00,South,190,0.0,0.0,100,0.00,,,0.00,Meteorologica,2013-10-06 07:27:00,
2013-10-06 03:32:00,66.4,66.4,29.99,South,190,0.0,0.0,100,0.00,,,0.00,Meteorologica,2013-10-06 07:32:00,
2013-10-06 03:38:00,66.3,66.3,29.99,South,190,0.0,0.0,100,0.00,,,0.00,Meteorologica,2013-10-06 07:38:00,
2013-10-06 03:43:00,66.1,66.1,29.99,South,190,0.0,0.0,100,0.00,,,0.00,Meteorologica,2013-10-06 07:43:00,
2013-10-06 03:48:00,66.1,66.1,29.99,South,190,0.0,0.0,100,0.00,,,0.00,Meteorologica,2013-10-06 07:48:00,
2013-10-06 03:53:00,66.1,66.1,29.99,South,190,0.0,0.0,100,0.00,,,0.00,Meteorologica,2013-10-06 07:53:00,
2013-10-06 03:59:00,66.1,66.1,29.99,South,190,0.0,0.0,100,0.00,,,0.00,Meteorologica,2013-10-06 07:59:00,
2013-10-06 04:04:00,65.9,65.9,29.99,South,190,0.0,0.0,100,0.00,,,0.00,Meteorologica,2013-10-06 08:04:00,
2013-10-06 04:09:00,66.0,66.0,29.99,South,190,0.0,0.0,100,0.00,,,0.00,Meteorologica,2013-10-06 08:09:00,
2013-10-06 04:15:00,65.9,65.9,29.99,South,190,0.0,0.0,100,0.00,,,0.00,Meteorologica,2013-10-06 08:15:00,
2013-10-06 04:20:00,65.8,65.8,29.99,South,190,0.0,0.0,100,0.00,,,0.00,Meteorologica,2013-10-06 08:20:00,
2013-10-06 04:25:00,65.8,65.8,29.99,South,190,0.0,0.0,100,0.00,,,0.00,Meteorologica,2013-10-06 08:25:00,
2013-10-06 04:31:00,65.8,65.8,29.98,South,190,0.0,0.0,100,0.00,,,0.00,Meteorologica,2013-10-06 08:31:00,
2013-10-06 04:36:00,65.8,65.8,29.98,South,190,0.0,0.0,100,0.00,,,0.00,Meteorologica,2013-10-06 08:36:00,
2013-10-06 04:41:00,65.6,65.6,29.98,South,190,0.0,0.0,100,0.00,,,0.00,Meteorologica,2013-10-06 08:41:00,
2013-10-06 04:47:00,65.6,65.6,29.98,South,190,0.0,0.0,100,0.00,,,0.00,Meteorologica,2013-10-06 08:47:00,
2013-10-06 04:52:00,65.7,65.7,29.99,South,190,0.0,0.0,100,0.00,,,0.00,Meteorologica,2013-10-06 08:52:00,
2013-10-06 04:57:00,65.5,65.5,29.99,South,190,0.0,0.0,100,0.00,,,0.00,Meteorologica,2013-10-06 08:57:00,
2013-10-06 05:02:00,65.5,65.5,29.99,South,190,0.0,0.0,100,0.00,,,0.00,Meteorologica,2013-10-06 09:02:00,
2013-10-06 05:08:00,65.6,65.6,29.99,South,190,0.0,0.0,100,0.00,,,0.00,Meteorologica,2013-10-06 09:08:00,
2013-10-06 05:10:00,65.5,65.5,29.99,South,190,0.0,0.0,100,0.00,,,0.00,Meteorologica,2013-10-06 09:10:00,
2013-10-06 05:16:00,65.4,65.4,29.99,South,190,0.0,0.0,100,0.00,,,0.00,Meteorologica,2013-10-06 09:16:00,
2013-10-06 05:21:00,65.2,65.2,29.99,South,190,0.0,0.0,100,0.00,,,0.00,Meteorologica,2013-10-06 09:21:00,
2013-10-06 05:26:00,65.2,65.2,29.99,South,190,0.0,0.0,100,0.00,,,0.00,Meteorologica,2013-10-06 09:26:00,
2013-10-06 05:32:00,65.3,65.3,30.00,South,190,0.0,0.0,100,0.00,,,0.00,Meteorologica,2013-10-06 09:32:00,
2013-10-06 05:37:00,65.2,65.2,30.00,South,190,0.0,0.0,100,0.00,,,0.00,Meteorologica,2013-10-06 09:37:00,
2013-10-06 05:42:00,65.3,65.3,30.00,South,190,0.0,0.0,100,0.00,,,0.00,Meteorologica,2013-10-06 09:42:00,
2013-10-06 05:47:00,65.1,65.1,30.00,South,190,0.0,0.0,100,0.00,,,0.00,Meteorologica,2013-10-06 09:47:00,
2013-10-06 05:52:00,65.1,65.1,30.00,South,190,0.0,0.0,100,0.00,,,0.00,Meteorologica,2013-10-06 09:52:00,
2013-10-06 05:58:00,64.9,64.9,30.01,South,190,0.0,0.0,100,0.00,,,0.00,Meteorologica,2013-10-06 09:58:00,
2013-10-06 06:03:00,64.7,64.7,30.01,South,190,0.0,0.0,100,0.00,,,0.00,Meteorologica,2013-10-06 10:03:00,
2013-10-06 06:09:00,64.8,64.8,30.01,South,190,0.0,0.0,100,0.00,,,0.00,Meteorologica,2013-10-06 10:09:00,
2013-10-06 06:15:00,64.8,64.8,30.01,South,190,0.0,0.0,100,0.00,,,0.00,Meteorologica,2013-10-06 10:15:00,
2013-10-06 06:20:00,64.7,64.7,30.01,South,190,0.0,0.0,100,0.00,,,0.00,Meteorologica,2013-10-06 10:20:00,
2013-10-06 06:25:00,64.7,64.7,30.01,South,190,0.0,0.0,100,0.00,,,0.00,Meteorologica,2013-10-06 10:25:00,
2013-10-06 06:30:00,64.9,64.9,30.01,South,190,0.0,0.0,100,0.00,,,0.00,Meteorologica,2013-10-06 10:30:00,
2013-10-06 06:35:00,64.8,64.8,30.01,South,190,0.0,0.0,100,0.00,,,0.00,Meteorologica,2013-10-06 10:35:00,
2013-10-06 06:40:00,64.8,64.8,30.01,South,190,0.0,0.0,100,0.00,,,0.00,Meteorologica,2013-10-06 10:40:00,
2013-10-06 06:46:00,64.8,64.8,30.02,South,190,0.0,0.0,100,0.00,,,0.00,Meteorologica,2013-10-06 10:46:00,
2013-10-06 06:51:00,64.8,64.8,30.01,South,190,0.0,0.0,100,0.00,,,0.00,Meteorologica,2013-10-06 10:51:00,
2013-10-06 06:56:00,64.7,64.7,30.02,South,190,0.0,0.0,100,0.00,,,0.00,Meteorologica,2013-10-06 10:56:00,
2013-10-06 07:01:00,64.8,64.8,30.02,South,190,0.0,0.0,100,0.00,,,0.00,Meteorologica,2013-10-06 11:01:00,
2013-10-06 07:07:00,64.9,64.9,30.01,South,190,0.0,0.0,100,0.00,,,0.00,Meteorologica,2013-10-06 11:07:00,
2013-10-06 07:12:00,64.9,64.9,30.01,South,190,0.0,0.0,100,0.00,,,0.00,Meteorologica,2013-10-06 11:12:00,
2013-10-06 07:17:00,64.9,64.9,30.02,South,190,0.0,0.0,100,0.00,,,0.00,Meteorologica,2013-10-06 11:17:00,
2013-10-06 07:22:00,64.9,64.9,30.02,South,190,0.0,0.0,100,0.00,,,0.00,Meteorologica,2013-10-06 11:22:00,
2013-10-06 07:27:00,64.8,64.8,30.02,South,190,0.0,0.0,100,0.00,,,0.00,Meteorologica,2013-10-06 11:27:00,
2013-10-06 07:33:00,64.9,64.9,30.01,South,190,0.0,0.0,100,0.00,,,0.00,Meteorologica,2013-10-06 11:33:00,
2013-10-06 07:38:00,65.0,65.0,30.02,South,190,0.0,0.0,100,0.00,,,0.00,Meteorologica,2013-10-06 11:38:00,
2013-10-06 07:43:00,65.0,65.0,30.01,South,190,0.0,0.0,100,0.00,,,0.00,Meteorologica,2013-10-06 11:43:00,
2013-10-06 07:48:00,65.1,65.1,30.01,SSW,201,0.4,1.7,100,0.00,,,0.00,Meteorologica,2013-10-06 11:48:00,
2013-10-06 07:53:00,65.2,65.2,30.01,SW,218,0.0,6.0,100,0.00,,,0.00,Meteorologica,2013-10-06 11:53:00,
2013-10-06 07:58:00,65.1,65.1,30.01,SSW,196,2.0,4.2,100,0.00,,,0.00,Meteorologica,2013-10-06 11:58:00,
2013-10-06 08:03:00,65.4,65.4,30.01,SW,234,1.8,4.2,100,0.00,,,0.00,Meteorologica,2013-10-06 12:03:00,
2013-10-06 08:08:00,65.5,65.5,30.01,SE,144,2.6,4.5,100,0.00,,,0.00,Meteorologica,2013-10-06 12:08:00,
2013-10-06 08:13:00,65.7,65.7,30.01,South,190,3.1,5.3,100,0.00,,,0.00,Meteorologica,2013-10-06 12:13:00,
2013-10-06 08:18:00,65.7,65.7,30.01,SSW,204,0.0,5.3,100,0.00,,,0.00,Meteorologica,2013-10-06 12:18:00,
2013-10-06 08:23:00,66.0,66.0,30.01,SSW,207,0.8,0.0,100,0.00,,,0.00,Meteorologica,2013-10-06 12:23:00,
2013-10-06 08:28:00,66.0,66.0,30.01,SSE,166,2.3,4.5,100,0.00,,,0.00,Meteorologica,2013-10-06 12:28:00,
2013-10-06 08:33:00,66.2,66.2,30.01,SSE,149,0.2,5.0,100,0.00,,,0.00,Meteorologica,2013-10-06 12:33:00,
2013-10-06 08:38:00,66.4,66.4,30.01,SSW,201,0.4,2.9,100,0.00,,,0.00,Meteorologica,2013-10-06 12:38:00,
2013-10-06 08:43:00,66.7,66.7,30.01,East,90,0.8,7.3,100,0.00,,,0.00,Meteorologica,2013-10-06 12:43:00,
2013-10-06 08:48:00,66.8,66.8,30.01,SW,216,2.8,5.5,100,0.00,,,0.00,Meteorologica,2013-10-06 12:48:00,
2013-10-06 08:53:00,66.9,66.9,30.02,SSW,210,3.4,6.9,100,0.00,,,0.00,Meteorologica,2013-10-06 12:53:00,
2013-10-06 08:58:00,67.2,67.2,30.01,SSW,198,0.5,5.0,100,0.00,,,0.00,Meteorologica,2013-10-06 12:58:00,
2013-10-06 09:03:00,67.4,67.4,30.01,SSW,204,2.2,4.8,100,0.00,,,0.00,Meteorologica,2013-10-06 13:03:00,
2013-10-06 09:08:00,67.4,67.4,30.01,SSW,208,3.5,3.7,100,0.00,,,0.00,Meteorologica,2013-10-06 13:08:00,
2013-10-06 09:13:00,67.9,67.9,30.01,SSW,199,1.5,7.3,100,0.00,,,0.00,Meteorologica,2013-10-06 13:13:00,
2013-10-06 09:18:00,68.0,68.0,30.01,SSW,204,0.1,6.1,100,0.00,,,0.00,Meteorologica,2013-10-06 13:18:00,
2013-10-06 09:23:00,68.1,68.1,30.01,SSW,203,3.0,6.2,100,0.00,,,0.00,Meteorologica,2013-10-06 13:23:00,
2013-10-06 09:28:00,68.4,68.4,30.01,WSW,247,2.7,6.6,100,0.00,,,0.00,Meteorologica,2013-10-06 13:28:00,
2013-10-06 09:33:00,68.5,68.5,30.01,SSW,192,2.3,4.4,100,0.00,,,0.00,Meteorologica,2013-10-06 13:33:00,
2013-10-06 09:38:00,68.7,68.7,30.01,WSW,244,1.8,4.9,100,0.00,,,0.00,Meteorologica,2013-10-06 13:38:00,
2013-10-06 09:43:00,68.9,68.9,30.01,SSW,213,0.6,4.4,100,0.00,,,0.00,Meteorologica,2013-10-06 13:43:00,
2013-10-06 09:48:00,69.1,69.1,30.01,SW,226,3.4,4.2,100,0.00,,,0.00,Meteorologica,2013-10-06 13:48:00,
2013-10-06 09:53:00,69.5,69.5,30.01,West,279,0.3,6.6,100,0.00,,,0.00,Meteorologica,2013-10-06 13:53:00,
2013-10-06 09:58:00,69.5,69.5,30.01,SSW,201,2.7,2.9,100,0.00,,,0.00,Meteorologica,2013-10-06 13:58:00,
2013-10-06 10:03:00,69.8,69.8,30.01,SW,218,1.2,4.4,100,0.00,,,0.00,Meteorologica,2013-10-06 14:03:00,
2013-10-06 10:09:00,70.0,70.0,30.01,SSW,200,0.0,2.4,100,0.00,,,0.00,Meteorologica,2013-10-06 14:09:00,
2013-10-06 10:14:00,70.1,70.1,30.01,SW,225,1.3,5.0,100,0.00,,,0.00,Meteorologica,2013-10-06 14:14:00,
2013-10-06 10:19:00,70.5,70.5,30.00,SSE,160,2.2,5.9,100,0.00,,,0.00,Meteorologica,2013-10-06 14:19:00,
2013-10-06 10:24:00,70.9,70.9,30.00,SSW,213,1.7,6.6,100,0.00,,,0.00,Meteorologica,2013-10-06 14:24:00,
2013-10-06 10:29:00,71.2,71.2,30.00,SSW,213,2.8,6.8,100,0.00,,,0.00,Meteorologica,2013-10-06 14:29:00,
2013-10-06 10:34:00,71.7,71.7,30.00,ENE,69,2.8,5.5,100,0.00,,,0.00,Meteorologica,2013-10-06 14:34:00,
2013-10-06 10:39:00,72.1,72.1,30.00,ESE,105,1.9,6.0,100,0.00,,,0.00,Meteorologica,2013-10-06 14:39:00,
2013-10-06 10:44:00,72.6,70.4,29.99,East,99,2.2,7.3,93,0.00,,,0.00,Meteorologica,2013-10-06 14:44:00,
2013-10-06 10:49:00,73.2,70.3,29.99,SSE,156,3.9,9.5,90,0.00,,,0.00,Meteorologica,2013-10-06 14:49:00,
2013-10-06 10:54:00,73.3,68.0,29.99,SSW,208,4.2,9.5,83,0.00,,,0.00,Meteorologica,2013-10-06 14:54:00,
2013-10-06 10:59:00,73.6,68.4,29.99,WNW,287,3.3,9.3,83,0.00,,,0.00,Meteorologica,2013-10-06 14:59:00,
2013-10-06 11:04:00,74.0,68.9,29.99,ESE,115,4.2,8.4,84,0.00,,,0.00,Meteorologica,2013-10-06 15:04:00,
2013-10-06 11:09:00,74.6,69.1,29.99,SSW,208,4.1,8.4,82,0.00,,,0.00,Meteorologica,2013-10-06 15:09:00,
2013-10-06 11:14:00,75.1,68.2,29.99,SSW,213,3.8,7.3,78,0.00,,,0.00,Meteorologica,2013-10-06 15:14:00,
2013-10-06 11:19:00,75.7,67.4,29.99,South,191,4.2,7.9,75,0.00,,,0.00,Meteorologica,2013-10-06 15:19:00,
2013-10-06 11:24:00,76.0,67.2,29.99,SSW,210,4.8,10.5,73,0.00,,,0.00,Meteorologica,2013-10-06 15:24:00,
2013-10-06 11:29:00,76.3,67.9,29.99,ESE,110,0.1,8.3,74,0.00,,,0.00,Meteorologica,2013-10-06 15:29:00,
2013-10-06 11:34:00,76.5,67.9,29.99,SSW,212,4.5,6.1,74,0.00,,,0.00,Meteorologica,2013-10-06 15:34:00,
2013-10-06 11:39:00,76.8,67.8,29.99,WSW,256,3.5,7.3,72,0.00,,,0.00,Meteorologica,2013-10-06 15:39:00,
2013-10-06 11:44:00,76.9,68.0,29.99,East,93,1.8,9.7,73,0.00,,,0.00,Meteorologica,2013-10-06 15:44:00,
2013-10-06 11:49:00,77.0,67.8,29.98,SSW,211,0.3,5.9,72,0.00,,,0.00,Meteorologica,2013-10-06 15:49:00,
2013-10-06 11:54:00,77.3,68.4,29.98,SW,223,0.6,6.6,73,0.00,,,0.00,Meteorologica,2013-10-06 15:54:00,
2013-10-06 11:59:00,77.3,67.7,29.98,South,170,1.1,6.6,71,0.00,,,0.00,Meteorologica,2013-10-06 15:59:00,
2013-10-06 12:04:00,77.8,67.8,29.98,SSW,192,0.3,6.8,71,0.00,,,0.00,Meteorologica,2013-10-06 16:04:00,
2013-10-06 12:09:00,78.0,67.1,29.98,WSW,250,3.5,6.4,68,0.00,,,0.00,Meteorologica,2013-10-06 16:09:00,
2013-10-06 12:14:00,78.5,68.0,29.97,SW,227,5.6,6.8,69,0.00,,,0.00,Meteorologica,2013-10-06 16:14:00,
2013-10-06 12:19:00,79.0,66.2,29.98,NW,316,3.4,14.8,64,0.00,,,0.00,Meteorologica,2013-10-06 16:19:00,
2013-10-06 12:24:00,79.3,65.7,29.97,SSE,149,3.6,13.1,62,0.00,,,0.00,Meteorologica,2013-10-06 16:24:00,
2013-10-06 12:29:00,79.7,66.7,29.97,ESE,110,2.1,10.5,63,0.00,,,0.00,Meteorologica,2013-10-06 16:29:00,
2013-10-06 12:34:00,80.0,66.4,29.97,SSE,162,1.5,12.2,62,0.00,,,0.00,Meteorologica,2013-10-06 16:34:00,
2013-10-06 12:39:00,79.9,65.3,29.97,South,179,7.4,9.1,60,0.00,,,0.00,Meteorologica,2013-10-06 16:39:00,
2013-10-06 12:44:00,79.8,66.0,29.96,SW,235,3.2,12.4,62,0.00,,,0.00,Meteorologica,2013-10-06 16:44:00,
2013-10-06 12:49:00,79.4,66.1,29.97,South,182,3.7,8.7,63,0.00,,,0.00,Meteorologica,2013-10-06 16:49:00,
2013-10-06 12:54:00,79.5,66.2,29.96,WSW,244,3.5,11.0,63,0.00,,,0.00,Meteorologica,2013-10-06 16:54:00,
2013-10-06 12:59:00,79.5,66.8,29.97,ESE,103,5.4,7.6,64,0.00,,,0.00,Meteorologica,2013-10-06 16:59:00,
2013-10-06 13:04:00,79.4,66.6,29.96,SE,141,1.6,8.7,64,0.00,,,0.00,Meteorologica,2013-10-06 17:04:00,
2013-10-06 13:09:00,79.4,66.3,29.96,NW,306,3.6,7.3,63,0.00,,,0.00,Meteorologica,2013-10-06 17:09:00,
2013-10-06 13:14:00,79.3,66.2,29.95,South,182,3.3,8.9,63,0.00,,,0.00,Meteorologica,2013-10-06 17:14:00,
2013-10-06 13:19:00,79.2,66.4,29.96,SSE,155,3.8,8.6,64,0.00,,,0.00,Meteorologica,2013-10-06 17:19:00,
2013-10-06 13:24:00,79.4,66.9,29.95,SE,127,2.5,8.4,65,0.00,,,0.00,Meteorologica,2013-10-06 17:24:00,
2013-10-06 13:29:00,79.7,66.6,29.95,SW,216,3.9,8.6,63,0.00,,,0.00,Meteorologica,2013-10-06 17:29:00,
2013-10-06 13:34:00,80.0,66.5,29.94,SSW,196,5.5,9.7,62,0.00,,,0.00,Meteorologica,2013-10-06 17:34:00,
2013-10-06 13:39:00,80.2,65.8,29.94,East,79,3.7,10.4,61,0.00,,,0.00,Meteorologica,2013-10-06 17:39:00,
2013-10-06 13:44:00,80.4,66.2,29.94,SSE,163,0.3,13.0,61,0.00,,,0.00,Meteorologica,2013-10-06 17:44:00,
2013-10-06 13:49:00,80.7,65.6,29.93,SSW,210,3.4,9.1,59,0.00,,,0.00,Meteorologica,2013-10-06 17:49:00,
2013-10-06 13:54:00,81.3,66.3,29.93,ESE,108,2.6,8.7,59,0.00,,,0.00,Meteorologica,2013-10-06 17:54:00,
2013-10-06 13:59:00,81.6,65.1,29.93,SSE,160,6.9,11.8,56,0.00,,,0.00,Meteorologica,2013-10-06 17:59:00,
2013-10-06 14:04:00,81.7,65.1,29.93,South,178,2.5,11.4,56,0.00,,,0.00,Meteorologica,2013-10-06 18:04:00,
2013-10-06 14:09:00,82.0,66.2,29.92,East,95,3.1,15.0,58,0.00,,,0.00,Meteorologica,2013-10-06 18:09:00,
2013-10-06 14:14:00,82.1,65.4,29.92,SW,218,4.6,10.2,56,0.00,,,0.00,Meteorologica,2013-10-06 18:14:00,
2013-10-06 14:19:00,82.0,64.8,29.92,SW,220,3.3,11.0,55,0.00,,,0.00,Meteorologica,2013-10-06 18:19:00,
2013-10-06 14:24:00,82.0,66.2,29.92,SSW,207,4.3,8.3,58,0.00,,,0.00,Meteorologica,2013-10-06 18:24:00,
2013-10-06 14:29:00,82.1,66.4,29.91,ESE,119,2.8,13.5,58,0.00,,,0.00,Meteorologica,2013-10-06 18:29:00,
2013-10-06 14:34:00,82.4,67.0,29.91,ESE,106,1.0,9.5,59,0.00,,,0.00,Meteorologica,2013-10-06 18:34:00,
2013-10-06 14:39:00,82.3,66.1,29.91,SW,227,2.7,7.6,57,0.00,,,0.00,Meteorologica,2013-10-06 18:39:00,
2013-10-06 14:44:00,81.8,66.0,29.91,ESE,109,1.6,6.4,58,0.00,,,0.00,Meteorologica,2013-10-06 18:44:00,
2013-10-06 14:49:00,81.3,65.8,29.91,South,186,3.7,10.8,58,0.00,,,0.00,Meteorologica,2013-10-06 18:49:00,
2013-10-06 14:54:00,81.1,65.3,29.91,WSW,252,4.9,10.7,58,0.00,,,0.00,Meteorologica,2013-10-06 18:54:00,
2013-10-06 14:59:00,80.5,64.9,29.90,SW,217,5.2,9.9,58,0.00,,,0.00,Meteorologica,2013-10-06 18:59:00,
2013-10-06 15:04:00,80.5,65.5,29.90,South,173,0.0,9.2,59,0.00,,,0.00,Meteorologica,2013-10-06 19:04:00,
2013-10-06 15:09:00,80.5,65.7,29.90,SSW,210,3.6,8.7,60,0.00,,,0.00,Meteorologica,2013-10-06 19:09:00,
2013-10-06 15:14:00,80.5,65.4,29.90,SSW,212,4.0,11.4,59,0.00,,,0.00,Meteorologica,2013-10-06 19:14:00,
2013-10-06 15:19:00,80.5,65.3,29.89,SSW,208,2.2,13.5,59,0.00,,,0.00,Meteorologica,2013-10-06 19:19:00,
2013-10-06 15:24:00,80.4,65.2,29.89,SW,235,3.5,10.2,59,0.00,,,0.00,Meteorologica,2013-10-06 19:24:00,
2013-10-06 15:29:00,80.4,65.1,29.89,SW,223,5.5,7.4,59,0.00,,,0.00,Meteorologica,2013-10-06 19:29:00,
2013-10-06 15:34:00,80.5,65.2,29.89,SSE,156,1.8,11.3,59,0.00,,,0.00,Meteorologica,2013-10-06 19:34:00,
2013-10-06 15:39:00,80.4,65.5,29.88,NE,38,3.0,9.8,60,0.00,,,0.00,Meteorologica,2013-10-06 19:39:00,
2013-10-06 15:44:00,80.4,65.9,29.88,South,182,1.9,8.4,61,0.00,,,0.00,Meteorologica,2013-10-06 19:44:00,
2013-10-06 15:49:00,80.3,66.3,29.88,East,97,2.2,4.6,62,0.00,,,0.00,Meteorologica,2013-10-06 19:49:00,
2013-10-06 15:54:00,80.2,66.6,29.88,South,183,1.7,6.9,62,0.00,,,0.00,Meteorologica,2013-10-06 19:54:00,
2013-10-06 15:59:00,80.1,66.5,29.88,South,169,2.7,6.3,62,0.00,,,0.00,Meteorologica,2013-10-06 19:59:00,
2013-10-06 16:04:00,80.0,66.4,29.87,SE,125,3.6,10.1,62,0.00,,,0.00,Meteorologica,2013-10-06 20:04:00,
2013-10-06 16:09:00,79.7,66.3,29.87,SSW,193,4.3,11.9,63,0.00,,,0.00,Meteorologica,2013-10-06 20:09:00,
2013-10-06 16:14:00,79.4,65.7,29.86,East,88,4.4,10.8,62,0.00,,,0.00,Meteorologica,2013-10-06 20:14:00,
2013-10-06 16:19:00,79.0,65.7,29.86,SSW,208,1.2,10.7,63,0.00,,,0.00,Meteorologica,2013-10-06 20:19:00,
2013-10-06 16:24:00,78.8,66.0,29.85,NW,323,3.1,6.3,64,0.00,,,0.00,Meteorologica,2013-10-06 20:24:00,
2013-10-06 16:29:00,78.2,65.8,29.85,SSW,208,3.2,8.1,65,0.00,,,0.00,Meteorologica,2013-10-06 20:29:00,
2013-10-06 16:34:00,78.1,66.0,29.85,SW,215,1.3,8.0,65,0.00,,,0.00,Meteorologica,2013-10-06 20:34:00,
2013-10-06 16:39:00,77.9,66.1,29.86,SE,125,2.9,8.5,66,0.00,,,0.00,Meteorologica,2013-10-06 20:39:00,
2013-10-06 16:44:00,77.7,66.3,29.86,SW,216,3.7,8.1,67,0.00,,,0.00,Meteorologica,2013-10-06 20:44:00,
2013-10-06 16:49:00,77.4,66.4,29.86,SSW,198,3.4,11.2,68,0.00,,,0.00,Meteorologica,2013-10-06 20:49:00,
2013-10-06 16:54:00,77.1,66.2,29.86,ESE,104,2.3,7.1,68,0.00,,,0.00,Meteorologica,2013-10-06 20:54:00,
2013-10-06 16:59:00,77.1,66.4,29.86,South,187,1.9,5.9,69,0.00,,,0.00,Meteorologica,2013-10-06 20:59:00,
2013-10-06 17:04:00,77.0,66.5,29.86,SSW,201,2.5,3.8,69,0.00,,,0.00,Meteorologica,2013-10-06 21:04:00,
2013-10-06 17:09:00,76.8,66.5,29.87,WSW,238,3.1,7.0,70,0.00,,,0.00,Meteorologica,2013-10-06 21:09:00,
2013-10-06 17:14:00,76.7,66.7,29.87,SSW,210,2.7,4.9,71,0.00,,,0.00,Meteorologica,2013-10-06 21:14:00,
2013-10-06 17:19:00,76.6,67.1,29.87,SE,141,1.8,8.0,72,0.00,,,0.00,Meteorologica,2013-10-06 21:19:00,
2013-10-06 17:24:00,76.6,67.6,29.87,SW,225,3.6,4.0,73,0.00,,,0.00,Meteorologica,2013-10-06 21:24:00,
2013-10-06 17:29:00,76.3,67.4,29.87,SW,216,2.1,6.1,73,0.00,,,0.00,Meteorologica,2013-10-06 21:29:00,
2013-10-06 17:34:00,76.3,68.1,29.87,SSE,156,0.9,6.6,75,0.00,,,0.00,Meteorologica,2013-10-06 21:34:00,
2013-10-06 17:39:00,76.2,68.6,29.87,SSW,194,3.3,6.6,76,0.00,,,0.00,Meteorologica,2013-10-06 21:39:00,
2013-10-06 17:44:00,76.0,68.8,29.87,SSW,213,2.0,5.0,78,0.00,,,0.00,Meteorologica,2013-10-06 21:44:00,
2013-10-06 17:49:00,75.9,69.6,29.87,South,180,0.6,4.0,80,0.00,,,0.00,Meteorologica,2013-10-06 21:49:00,
2013-10-06 17:54:00,75.7,70.3,29.87,SW,229,0.3,2.7,83,0.00,,,0.00,Meteorologica,2013-10-06 21:54:00,
2013-10-06 17:59:00,75.4,71.6,29.87,SSE,148,0.0,3.7,87,0.00,,,0.00,Meteorologica,2013-10-06 21:59:00,
2013-10-06 18:04:00,75.2,72.4,29.87,SE,134,0.1,3.7,91,0.00,,,0.00,Meteorologica,2013-10-06 22:04:00,
2013-10-06 18:09:00,74.8,73.9,29.87,SSW,197,2.4,2.4,97,0.00,,,0.00,Meteorologica,2013-10-06 22:09:00,
2013-10-06 18:14:00,74.6,74.0,29.87,SSW,199,2.0,4.0,98,0.00,,,0.00,Meteorologica,2013-10-06 22:14:00,
2013-10-06 18:20:00,74.2,74.2,29.87,East,87,0.0,3.3,100,0.00,,,0.00,Meteorologica,2013-10-06 22:20:00,
2013-10-06 18:25:00,74.1,74.1,29.87,SSE,149,0.1,1.5,100,0.00,,,0.00,Meteorologica,2013-10-06 22:25:00,
2013-10-06 18:30:00,74.1,74.1,29.86,SSW,201,1.6,1.6,100,0.00,,,0.00,Meteorologica,2013-10-06 22:30:00,
2013-10-06 18:35:00,73.8,73.8,29.87,SSW,210,0.5,4.0,100,0.00,,,0.00,Meteorologica,2013-10-06 22:35:00,
2013-10-06 18:40:00,73.6,73.6,29.87,SSW,207,1.5,3.3,100,0.00,,,0.00,Meteorologica,2013-10-06 22:40:00,
2013-10-06 18:45:00,73.6,73.6,29.87,SSE,166,2.3,5.5,100,0.00,,,0.00,Meteorologica,2013-10-06 22:45:00,
2013-10-06 18:50:00,73.3,73.3,29.86,SSW,199,1.9,5.8,100,0.00,,,0.00,Meteorologica,2013-10-06 22:50:00,
2013-10-06 18:55:00,73.3,73.3,29.87,SSW,200,3.0,5.8,100,0.00,,,0.00,Meteorologica,2013-10-06 22:55:00,
2013-10-06 19:00:00,73.0,73.0,29.87,SW,214,2.4,6.2,100,0.00,,,0.00,Meteorologica,2013-10-06 23:00:00,
2013-10-06 19:05:00,73.0,73.0,29.87,WSW,249,2.8,6.0,100,0.00,,,0.00,Meteorologica,2013-10-06 23:05:00,
2013-10-06 19:10:00,73.0,73.0,29.87,SSW,204,2.5,5.3,100,0.00,,,0.00,Meteorologica,2013-10-06 23:10:00,
2013-10-06 19:15:00,73.2,73.2,29.87,SSE,160,3.0,5.3,100,0.00,,,0.00,Meteorologica,2013-10-06 23:15:00,
2013-10-06 19:20:00,73.0,73.0,29.87,SW,227,4.7,7.9,100,0.00,,,0.00,Meteorologica,2013-10-06 23:20:00,
2013-10-06 19:25:00,73.2,73.2,29.87,SSW,202,3.6,6.6,100,0.00,,,0.00,Meteorologica,2013-10-06 23:25:00,
2013-10-06 19:30:00,73.0,73.0,29.87,SW,222,2.2,12.1,100,0.00,,,0.00,Meteorologica,2013-10-06 23:30:00,
2013-10-06 19:34:00,73.1,73.1,29.87,SE,134,6.4,9.4,100,0.00,,,0.00,Meteorologica,2013-10-06 23:34:00,
2013-10-06 19:40:00,73.3,73.3,29.87,SSW,206,2.7,10.4,100,0.00,,,0.00,Meteorologica,2013-10-06 23:40:00,
2013-10-06 19:45:00,73.2,73.2,29.87,South,170,4.7,6.3,100,0.00,,,0.00,Meteorologica,2013-10-06 23:45:00,
2013-10-06 19:49:00,73.3,73.3,29.87,SSW,204,5.4,11.2,100,0.00,,,0.00,Meteorologica,2013-10-06 23:49:00,
2013-10-06 19:54:00,73.2,73.2,29.88,South,191,7.6,12.3,100,0.00,,,0.00,Meteorologica,2013-10-06 23:54:00,
2013-10-06 19:59:00,73.1,73.1,29.88,ESE,114,3.7,12.8,100,0.00,,,0.00,Meteorologica,2013-10-06 23:59:00,
2013-10-06 20:04:00,72.8,72.8,29.88,SSW,212,3.8,13.7,100,0.00,,,0.00,Meteorologica,2013-10-07 00:04:00,
2013-10-06 20:09:00,72.7,72.7,29.88,SSW,210,5.6,14.5,100,0.00,,,0.00,Meteorologica,2013-10-07 00:09:00,
2013-10-06 20:14:00,72.5,72.5,29.88,ESE,103,3.7,11.9,100,0.00,,,0.00,Meteorologica,2013-10-07 00:14:00,
2013-10-06 20:19:00,72.2,72.2,29.88,South,190,5.2,10.9,100,0.00,,,0.00,Meteorologica,2013-10-07 00:19:00,
2013-10-06 20:24:00,72.1,72.1,29.88,SSW,204,4.8,13.6,100,0.00,,,0.00,Meteorologica,2013-10-07 00:24:00,
2013-10-06 20:29:00,71.8,71.8,29.88,SW,229,5.9,9.2,100,0.00,,,0.00,Meteorologica,2013-10-07 00:29:00,
2013-10-06 20:34:00,71.7,71.7,29.88,SW,223,5.2,13.2,100,0.00,,,0.00,Meteorologica,2013-10-07 00:34:00,
2013-10-06 20:39:00,71.6,71.6,29.88,SSW,196,5.5,12.0,100,0.00,,,0.00,Meteorologica,2013-10-07 00:39:00,
2013-10-06 20:44:00,71.4,71.4,29.88,South,180,2.1,10.1,100,0.00,,,0.00,Meteorologica,2013-10-07 00:44:00,
2013-10-06 20:49:00,71.3,71.3,29.88,SSE,157,5.4,10.9,100,0.00,,,0.00,Meteorologica,2013-10-07 00:49:00,
2013-10-06 20:54:00,71.4,71.4,29.88,SSW,205,5.2,11.8,100,0.00,,,0.00,Meteorologica,2013-10-07 00:54:00,
2013-10-06 20:59:00,71.2,71.2,29.88,SSW,213,5.1,10.7,100,0.00,,,0.00,Meteorologica,2013-10-07 00:59:00,
2013-10-06 21:04:00,71.1,71.1,29.88,SW,215,4.3,10.5,100,0.00,,,0.00,Meteorologica,2013-10-07 01:04:00,
2013-10-06 21:09:00,71.0,71.0,29.88,SSW,213,5.0,12.3,100,0.00,,,0.00,Meteorologica,2013-10-07 01:09:00,
2013-10-06 21:14:00,70.9,70.9,29.88,SSW,212,5.2,11.0,100,0.00,,,0.00,Meteorologica,2013-10-07 01:14:00,
2013-10-06 21:19:00,70.9,70.9,29.89,SSW,210,4.9,10.1,100,0.00,,,0.00,Meteorologica,2013-10-07 01:19:00,
2013-10-06 21:24:00,70.7,70.7,29.89,SSW,207,3.2,9.6,100,0.00,,,0.00,Meteorologica,2013-10-07 01:24:00,
2013-10-06 21:29:00,70.6,70.6,29.89,SSW,206,6.0,10.4,100,0.00,,,0.00,Meteorologica,2013-10-07 01:29:00,
2013-10-06 21:34:00,70.5,70.5,29.90,SSW,206,6.7,11.8,100,0.00,,,0.00,Meteorologica,2013-10-07 01:34:00,
2013-10-06 21:39:00,70.5,70.5,29.90,SW,217,4.8,10.9,100,0.00,,,0.00,Meteorologica,2013-10-07 01:39:00,
2013-10-06 21:44:00,70.4,70.4,29.90,SSW,206,2.3,12.6,100,0.00,,,0.00,Meteorologica,2013-10-07 01:44:00,
2013-10-06 21:49:00,70.5,70.5,29.90,SW,217,1.4,10.4,100,0.00,,,0.00,Meteorologica,2013-10-07 01:49:00,
2013-10-06 21:54:00,70.4,70.4,29.91,South,191,7.0,12.3,100,0.00,,,0.00,Meteorologica,2013-10-07 01:54:00,
2013-10-06 21:59:00,70.3,70.3,29.90,SW,223,3.3,9.5,100,0.00,,,0.00,Meteorologica,2013-10-07 01:59:00,
2013-10-06 22:04:00,70.3,70.3,29.90,SSW,196,7.0,11.2,100,0.00,,,0.00,Meteorologica,2013-10-07 02:04:00,
2013-10-06 22:09:00,70.2,70.2,29.90,South,189,1.9,13.0,100,0.00,,,0.00,Meteorologica,2013-10-07 02:09:00,
2013-10-06 22:14:00,70.1,70.1,29.91,South,170,3.9,13.5,100,0.00,,,0.00,Meteorologica,2013-10-07 02:14:00,
2013-10-06 22:19:00,70.1,70.1,29.91,SSW,200,4.9,10.7,100,0.00,,,0.00,Meteorologica,2013-10-07 02:19:00,
2013-10-06 22:24:00,70.0,70.0,29.90,East,80,1.1,9.3,100,0.00,,,0.00,Meteorologica,2013-10-07 02:24:00,
2013-10-06 22:30:00,70.1,70.1,29.90,SSW,206,6.4,6.4,100,0.00,,,0.00,Meteorologica,2013-10-07 02:30:00,
2013-10-06 22:35:00,70.0,70.0,29.90,SSW,206,5.2,10.8,100,0.00,,,0.00,Meteorologica,2013-10-07 02:35:00,
2013-10-06 22:39:00,69.8,69.8,29.90,SW,221,4.1,9.5,100,0.00,,,0.00,Meteorologica,2013-10-07 02:39:00,
2013-10-06 22:45:00,69.9,69.9,29.90,SSW,207,2.0,14.1,100,0.00,,,0.00,Meteorologica,2013-10-07 02:45:00,
2013-10-06 22:50:00,69.7,69.7,29.91,South,189,4.8,10.3,100,0.00,,,0.00,Meteorologica,2013-10-07 02:50:00,
2013-10-06 22:55:00,69.7,69.7,29.91,WSW,246,4.9,9.9,100,0.00,,,0.00,Meteorologica,2013-10-07 02:55:00,
2013-10-06 23:00:00,69.4,69.4,29.91,SE,129,5.9,11.5,100,0.00,,,0.00,Meteorologica,2013-10-07 03:00:00,
2013-10-06 23:05:00,69.5,69.5,29.91,SSW,201,3.6,9.7,100,0.00,,,0.00,Meteorologica,2013-10-07 03:05:00,
2013-10-06 23:10:00,69.4,69.4,29.91,SSW,202,4.9,6.8,100,0.00,,,0.00,Meteorologica,2013-10-07 03:10:00,
2013-10-06 23:15:00,69.4,69.4,29.91,ENE,61,2.8,9.5,100,0.00,,,0.00,Meteorologica,2013-10-07 03:15:00,
2013-10-06 23:20:00,69.3,69.3,29.91,SW,223,3.9,6.7,100,0.00,,,0.00,Meteorologica,2013-10-07 03:20:00,
2013-10-06 23:25:00,69.3,69.3,29.91,SSW,201,3.6,11.2,100,0.00,,,0.00,Meteorologica,2013-10-07 03:25:00,
2013-10-06 23:30:00,69.2,69.2,29.91,SW,230,2.3,5.8,100,0.00,,,0.00,Meteorologica,2013-10-07 03:30:00,
2013-10-06 23:35:00,69.2,69.2,29.92,North,355,0.9,5.7,100,0.00,,,0.00,Meteorologica,2013-10-07 03:35:00,
2013-10-06 23:40:00,68.4,63.5,29.93,NE,53,3.6,4.2,84,0.00,,,0.00,Meteorologica,2013-10-07 03:40:00,
2013-10-06 23:45:00,67.3,61.2,29.93,NNE,28,3.5,6.2,80,0.00,,,0.00,Meteorologica,2013-10-07 03:45:00,
2013-10-06 23:50:00,65.1,60.2,29.93,North,351,2.9,6.2,84,0.00,,,0.00,Meteorologica,2013-10-07 03:50:00,
2013-10-06 23:55:00,63.2,62.1,29.93,NNE,22,2.4,5.7,96,0.01,,,0.01,Meteorologica,2013-10-07 03:55:00,